createdAt,value
2019-02-24T00:00:07.950Z,7.60
2019-02-24T00:02:36.813Z,7.23
2019-02-24T00:05:05.907Z,5.50
2019-02-24T00:07:34.709Z,4.20
2019-02-24T00:10:03.584Z,6.37
2019-02-24T00:12:32.405Z,4.10
2019-02-24T00:15:01.226Z,6.80
2019-02-24T00:17:30.100Z,5.63
2019-02-24T00:19:58.893Z,5.00
2019-02-24T00:22:27.694Z,5.23
2019-02-24T00:24:56.496Z,4.73
2019-02-24T00:27:25.317Z,3.93
2019-02-24T00:29:54.124Z,3.60
2019-02-24T00:32:22.945Z,5.43
2019-02-24T00:34:51.728Z,5.33
2019-02-24T00:37:20.532Z,5.70
2019-02-24T00:39:49.320Z,4.40
2019-02-24T00:42:18.155Z,4.87
2019-02-24T00:44:46.941Z,4.40
2019-02-24T00:47:15.757Z,5.30
2019-02-24T00:49:45.230Z,4.37
2019-02-24T00:52:14.037Z,7.40
2019-02-24T00:54:42.829Z,4.40
2019-02-24T00:57:12.417Z,3.83
2019-02-24T00:59:41.201Z,5.63
2019-02-24T01:02:10.089Z,4.90
2019-02-24T01:04:38.881Z,4.63
2019-02-24T01:07:07.694Z,4.63
2019-02-24T01:09:36.484Z,5.73
2019-02-24T01:12:05.365Z,4.30
2019-02-24T01:14:34.165Z,3.90
2019-02-24T01:17:03.420Z,4.00
2019-02-24T01:19:32.233Z,3.53
2019-02-24T01:22:01.024Z,3.90
2019-02-24T01:24:29.847Z,3.70
2019-02-24T01:26:58.637Z,4.50
2019-02-24T01:29:27.424Z,4.37
2019-02-24T01:31:56.236Z,4.63
2019-02-24T01:34:25.050Z,5.30
2019-02-24T01:36:53.869Z,4.57
2019-02-24T01:39:22.673Z,3.67
2019-02-24T01:41:51.558Z,4.07
2019-02-24T01:44:20.360Z,4.47
2019-02-24T01:46:49.175Z,3.10
2019-02-24T01:49:17.968Z,3.73
2019-02-24T01:51:46.772Z,3.20
2019-02-24T01:54:15.571Z,2.70
2019-02-24T01:56:44.387Z,3.67
2019-02-24T01:59:13.184Z,3.17
2019-02-24T02:01:41.985Z,4.30
2019-02-24T02:04:10.784Z,3.20
2019-02-24T02:06:39.605Z,3.90
2019-02-24T02:09:08.557Z,3.87
2019-02-24T02:11:37.446Z,2.53
2019-02-24T02:14:06.236Z,2.27
2019-02-24T02:16:35.129Z,5.07
2019-02-24T02:19:03.990Z,2.83
2019-02-24T02:21:32.882Z,3.20
2019-02-24T02:24:01.762Z,2.83
2019-02-24T02:26:30.721Z,3.50
2019-02-24T02:28:59.508Z,3.13
2019-02-24T02:31:28.390Z,4.13
2019-02-24T02:33:57.277Z,2.70
2019-02-24T02:36:26.090Z,3.13
2019-02-24T02:38:54.886Z,2.97
2019-02-24T02:41:23.701Z,2.93
2019-02-24T02:43:52.513Z,2.67
2019-02-24T02:46:21.305Z,3.77
2019-02-24T02:48:50.194Z,2.67
2019-02-24T02:51:19.069Z,3.47
2019-02-24T02:53:47.877Z,2.27
2019-02-24T02:56:16.758Z,3.23
2019-02-24T02:58:53.848Z,2.83
2019-02-24T03:01:16.173Z,4.57
2019-02-24T03:03:44.982Z,3.70
2019-02-24T03:06:44.839Z,2.40
2019-02-24T03:09:13.723Z,3.17
2019-02-24T03:11:42.661Z,2.80
2019-02-24T03:14:11.469Z,5.13
2019-02-24T03:16:40.278Z,2.40
2019-02-24T03:19:09.094Z,3.10
2019-02-24T03:21:37.963Z,2.57
2019-02-24T03:24:06.849Z,7.63
2019-02-24T03:26:35.724Z,3.17
2019-02-24T03:29:04.639Z,2.97
2019-02-24T03:31:33.471Z,2.53
2019-02-24T03:34:02.298Z,2.23
2019-02-24T03:36:31.166Z,2.40
2019-02-24T03:38:59.973Z,3.30
2019-02-24T03:41:28.921Z,2.40
2019-02-24T03:43:57.733Z,2.00
2019-02-24T03:46:26.534Z,2.53
2019-02-24T03:48:55.348Z,3.53
2019-02-24T03:51:24.215Z,2.43
2019-02-24T03:53:53.290Z,2.33
2019-02-24T03:56:22.233Z,3.07
2019-02-24T03:58:51.328Z,3.33
2019-02-24T04:01:20.221Z,2.23
2019-02-24T04:03:49.119Z,1.97
2019-02-24T04:06:18.002Z,2.63
2019-02-24T04:08:46.800Z,2.17
2019-02-24T04:11:15.598Z,3.10
2019-02-24T04:13:44.492Z,2.20
2019-02-24T04:16:13.282Z,3.10
2019-02-24T04:18:42.104Z,2.73
2019-02-24T04:21:10.979Z,3.00
2019-02-24T04:23:39.800Z,4.17
2019-02-24T04:26:08.590Z,3.00
2019-02-24T04:28:37.388Z,2.43
2019-02-24T04:31:06.204Z,2.40
2019-02-24T04:33:35.101Z,3.00
2019-02-24T04:36:03.989Z,2.50
2019-02-24T04:38:32.786Z,2.23
2019-02-24T04:41:01.599Z,2.40
2019-02-24T04:43:30.401Z,2.43
2019-02-24T04:45:59.285Z,1.90
2019-02-24T04:48:28.099Z,2.43
2019-02-24T04:50:56.909Z,2.63
2019-02-24T04:53:25.784Z,2.40
2019-02-24T04:55:54.584Z,2.50
2019-02-24T04:58:23.389Z,2.33
2019-02-24T05:00:52.268Z,2.10
2019-02-24T05:03:21.067Z,2.57
2019-02-24T05:05:49.876Z,2.20
2019-02-24T05:08:18.750Z,1.90
2019-02-24T05:10:47.714Z,2.60
2019-02-24T05:13:16.510Z,2.23
2019-02-24T05:15:45.401Z,2.60
2019-02-24T05:18:14.205Z,2.60
2019-02-24T05:20:43.022Z,2.23
2019-02-24T05:23:11.808Z,2.20
2019-02-24T05:25:40.631Z,2.07
2019-02-24T05:28:09.426Z,2.50
2019-02-24T05:30:38.233Z,2.03
2019-02-24T05:33:07.059Z,2.10
2019-02-24T05:35:35.941Z,2.70
2019-02-24T05:38:04.944Z,3.10
2019-02-24T05:40:33.760Z,1.87
2019-02-24T05:43:02.555Z,2.43
2019-02-24T05:45:31.357Z,2.10
2019-02-24T05:48:00.157Z,2.00
2019-02-24T05:50:28.977Z,2.20
2019-02-24T05:52:57.765Z,2.77
2019-02-24T05:55:26.585Z,2.47
2019-02-24T05:57:55.382Z,2.27
2019-02-24T06:00:24.202Z,1.83
2019-02-24T06:02:53.009Z,2.43
2019-02-24T06:05:21.814Z,2.00
2019-02-24T06:07:50.694Z,2.30
2019-02-24T06:10:19.498Z,2.53
2019-02-24T06:12:48.305Z,2.00
2019-02-24T06:15:17.097Z,2.40
2019-02-24T06:17:45.920Z,2.47
2019-02-24T06:20:14.793Z,2.07
2019-02-24T06:22:43.606Z,2.10
2019-02-24T06:25:12.567Z,2.20
2019-02-24T06:27:41.370Z,1.73
2019-02-24T06:30:10.334Z,2.10
2019-02-24T06:32:39.149Z,1.90
2019-02-24T06:35:08.182Z,2.50
2019-02-24T06:37:36.995Z,2.43
2019-02-24T06:40:06.068Z,1.70
2019-02-24T06:42:34.873Z,2.53
2019-02-24T06:45:03.883Z,1.77
2019-02-24T06:47:32.688Z,2.20
2019-02-24T06:50:01.571Z,2.10
2019-02-24T06:52:30.366Z,2.00
2019-02-24T06:54:59.175Z,1.90
2019-02-24T06:57:28.045Z,2.07
2019-02-24T06:59:56.926Z,2.13
2019-02-24T07:02:25.721Z,2.67
2019-02-24T07:04:54.550Z,2.50
2019-02-24T07:07:23.416Z,2.30
2019-02-24T07:09:52.317Z,2.93
2019-02-24T07:12:21.187Z,3.23
2019-02-24T07:14:50.073Z,2.67
2019-02-24T07:17:18.852Z,2.00
2019-02-24T07:19:47.660Z,2.00
2019-02-24T07:22:16.463Z,2.50
2019-02-24T07:24:45.269Z,2.30
2019-02-24T07:27:14.060Z,2.70
2019-02-24T07:29:42.869Z,2.20
2019-02-24T07:32:11.673Z,2.20
2019-02-24T07:34:40.510Z,2.40
2019-02-24T07:37:12.963Z,2.10
2019-02-24T07:39:39.839Z,2.40
2019-02-24T07:42:08.638Z,2.57
2019-02-24T07:44:37.457Z,2.47
2019-02-24T07:47:06.262Z,2.23
2019-02-24T07:49:35.082Z,2.40
2019-02-24T07:52:03.876Z,3.37
2019-02-24T07:54:32.697Z,2.80
2019-02-24T07:57:01.505Z,2.53
2019-02-24T07:59:30.386Z,2.10
2019-02-24T08:01:59.265Z,2.20
2019-02-24T08:04:28.085Z,3.47
2019-02-24T08:06:56.901Z,2.47
2019-02-24T08:09:25.706Z,2.93
2019-02-24T08:11:54.572Z,2.20
2019-02-24T08:14:23.390Z,2.17
2019-02-24T08:16:52.262Z,2.40
2019-02-24T08:19:21.073Z,2.47
2019-02-24T08:21:49.875Z,2.60
2019-02-24T08:24:18.767Z,3.13
2019-02-24T08:26:47.573Z,1.93
2019-02-24T08:29:16.398Z,3.33
2019-02-24T08:31:45.215Z,2.83
2019-02-24T08:34:14.019Z,2.40
2019-02-24T08:36:42.978Z,2.50
2019-02-24T08:39:11.861Z,3.27
2019-02-24T08:41:40.738Z,2.10
2019-02-24T08:44:09.562Z,3.77
2019-02-24T08:46:38.365Z,3.10
2019-02-24T08:49:07.178Z,2.43
2019-02-24T08:51:36.059Z,2.03
2019-02-24T08:54:04.922Z,2.60
2019-02-24T08:56:33.735Z,2.33
2019-02-24T08:59:02.550Z,2.70
2019-02-24T09:01:31.345Z,2.37
2019-02-24T09:04:00.169Z,2.70
2019-02-24T09:06:28.978Z,2.97
2019-02-24T09:08:57.777Z,1.80
2019-02-24T09:11:26.590Z,2.20
2019-02-24T09:13:55.393Z,2.77
2019-02-24T09:16:24.185Z,2.50
2019-02-24T09:18:53.065Z,2.37
2019-02-24T09:21:21.870Z,2.03
2019-02-24T09:23:50.997Z,3.20
2019-02-24T09:26:19.861Z,2.17
2019-02-24T09:28:50.821Z,2.17
2019-02-24T09:31:19.316Z,2.43
2019-02-24T09:33:48.209Z,2.37
2019-02-24T09:36:17.085Z,2.20
2019-02-24T09:38:45.948Z,2.80
2019-02-24T09:41:14.844Z,2.40
2019-02-24T09:43:43.656Z,2.63
2019-02-24T09:46:12.469Z,2.90
2019-02-24T09:48:41.354Z,3.27
2019-02-24T09:51:10.321Z,2.97
2019-02-24T09:53:39.201Z,2.67
2019-02-24T09:56:08.087Z,3.10
2019-02-24T09:58:36.890Z,2.40
2019-02-24T10:01:10.523Z,2.47
2019-02-24T10:03:36.371Z,3.40
2019-02-24T10:06:05.178Z,2.00
2019-02-24T10:08:33.987Z,2.10
2019-02-24T10:11:02.881Z,3.33
2019-02-24T10:13:31.686Z,2.00
2019-02-24T10:16:00.874Z,2.03
2019-02-24T10:18:29.759Z,2.37
2019-02-24T10:20:58.621Z,3.53
2019-02-24T10:23:27.464Z,2.40
2019-02-24T10:25:56.251Z,2.40
2019-02-24T10:28:25.197Z,2.50
2019-02-24T10:30:54.174Z,2.53
2019-02-24T10:33:22.973Z,2.97
2019-02-24T10:35:51.793Z,3.57
2019-02-24T10:38:21.474Z,2.03
2019-02-24T10:40:50.357Z,2.93
2019-02-24T10:43:19.245Z,1.97
2019-02-24T10:45:48.125Z,2.57
2019-02-24T10:48:16.927Z,3.23
2019-02-24T10:50:45.809Z,2.20
2019-02-24T10:53:14.631Z,2.37
2019-02-24T10:55:43.501Z,2.20
2019-02-24T10:58:12.461Z,4.03
2019-02-24T11:00:41.341Z,2.67
2019-02-24T11:03:10.229Z,2.20
2019-02-24T11:05:39.188Z,2.53
2019-02-24T11:08:07.982Z,1.90
2019-02-24T11:10:36.785Z,2.57
2019-02-24T11:13:05.737Z,1.70
2019-02-24T11:15:34.559Z,2.80
2019-02-24T11:18:03.446Z,2.00
2019-02-24T11:20:32.509Z,4.90
2019-02-24T11:23:01.386Z,2.43
2019-02-24T11:25:30.273Z,2.97
2019-02-24T11:27:59.165Z,2.50
2019-02-24T11:30:27.993Z,2.40
2019-02-24T11:32:56.975Z,3.73
2019-02-24T11:35:25.870Z,2.20
2019-02-24T11:37:54.764Z,2.90
2019-02-24T11:40:23.753Z,3.50
2019-02-24T11:42:52.560Z,2.43
2019-02-24T11:45:21.486Z,2.00
2019-02-24T11:47:50.305Z,2.20
2019-02-24T11:50:19.193Z,3.00
2019-02-24T11:52:48.002Z,2.07
2019-02-24T11:55:16.989Z,2.60
2019-02-24T11:57:45.779Z,4.00
2019-02-24T12:00:15.424Z,3.20
2019-02-24T12:02:44.376Z,2.77
2019-02-24T12:05:13.473Z,2.60
2019-02-24T12:07:42.281Z,2.30
2019-02-24T12:10:11.238Z,2.17
2019-02-24T12:12:40.188Z,2.30
2019-02-24T12:15:09.598Z,2.53
2019-02-24T12:17:38.605Z,2.03
2019-02-24T12:20:09.373Z,2.60
2019-02-24T12:22:38.345Z,2.10
2019-02-24T12:25:07.818Z,2.07
2019-02-24T12:27:36.798Z,2.20
2019-02-24T12:30:06.902Z,6.07
2019-02-24T12:32:35.788Z,2.17
2019-02-24T12:35:05.048Z,2.10
2019-02-24T12:37:33.863Z,2.50
2019-02-24T12:40:02.771Z,2.50
2019-02-24T12:42:31.649Z,2.07
2019-02-24T12:45:00.454Z,3.80
2019-02-24T12:47:29.269Z,1.90
2019-02-24T12:50:03.143Z,2.10
2019-02-24T12:52:28.767Z,2.00
2019-02-24T12:54:57.586Z,1.80
2019-02-24T12:57:26.452Z,2.30
2019-02-24T12:59:55.345Z,2.70
2019-02-24T13:02:24.265Z,2.27
2019-02-24T13:04:53.061Z,2.13
2019-02-24T13:07:21.958Z,2.60
2019-02-24T13:09:50.774Z,2.93
2019-02-24T13:12:19.689Z,3.07
2019-02-24T13:14:48.501Z,3.20
2019-02-24T13:17:17.872Z,1.87
2019-02-24T13:19:47.266Z,2.73
2019-02-24T13:22:16.919Z,2.50
2019-02-24T13:24:49.045Z,6.30
2019-02-24T13:27:18.705Z,2.77
2019-02-24T13:29:48.462Z,2.17
2019-02-24T13:32:18.126Z,2.23
2019-02-24T13:34:47.899Z,2.27
2019-02-24T13:37:17.634Z,4.53
2019-02-24T13:39:47.401Z,4.90
2019-02-24T13:42:17.241Z,6.70
2019-02-24T13:44:46.865Z,2.23
2019-02-24T13:47:16.644Z,2.30
2019-02-24T13:49:45.565Z,4.27
2019-02-24T13:52:14.455Z,3.13
2019-02-24T13:54:43.470Z,2.93
2019-02-24T13:57:12.341Z,2.20
2019-02-24T13:59:41.294Z,3.33
2019-02-24T14:02:10.105Z,12.03
2019-02-24T14:04:39.073Z,12.40
2019-02-24T14:07:07.914Z,19.17
2019-02-24T14:09:36.717Z,27.37
2019-02-24T14:12:05.625Z,50.73
2019-02-24T14:14:34.445Z,52.50
2019-02-24T14:17:03.343Z,65.33
2019-02-24T14:19:32.182Z,58.47
2019-02-24T14:22:01.122Z,67.10
2019-02-24T14:24:30.022Z,61.60
2019-02-24T14:26:58.825Z,64.77
2019-02-24T14:29:27.708Z,67.17
2019-02-24T14:31:56.504Z,60.87
2019-02-24T14:34:25.330Z,58.37
2019-02-24T14:36:54.222Z,79.97
2019-02-24T14:39:23.115Z,68.30
2019-02-24T14:41:52.006Z,63.13
2019-02-24T14:44:20.886Z,73.67
2019-02-24T14:46:49.765Z,56.67
2019-02-24T14:49:18.569Z,61.60
2019-02-24T14:51:47.476Z,63.70
2019-02-24T14:54:16.276Z,82.67
2019-02-24T14:56:45.105Z,57.83
2019-02-24T14:59:13.911Z,56.60
2019-02-24T15:01:42.736Z,61.67
2019-02-24T15:04:11.626Z,60.90
2019-02-24T15:06:40.445Z,67.47
2019-02-24T15:09:09.399Z,49.20
2019-02-24T15:11:38.198Z,62.17
2019-02-24T15:14:07.089Z,59.60
2019-02-24T15:16:35.898Z,58.00
2019-02-24T15:19:04.869Z,49.23
2019-02-24T15:21:33.698Z,55.87
2019-02-24T15:24:02.513Z,58.93
2019-02-24T15:26:31.335Z,48.83
2019-02-24T15:29:00.273Z,52.63
2019-02-24T15:31:29.160Z,47.93
2019-02-24T15:33:58.050Z,46.07
2019-02-24T15:36:26.937Z,53.03
2019-02-24T15:38:55.746Z,42.60
2019-02-24T15:41:29.723Z,45.03
2019-02-24T15:43:55.123Z,40.40
2019-02-24T15:46:24.022Z,43.17
2019-02-24T15:48:52.912Z,48.67
2019-02-24T15:51:21.885Z,42.43
2019-02-24T15:53:50.665Z,40.03
2019-02-24T15:56:19.485Z,50.27
2019-02-24T15:58:48.369Z,40.60
2019-02-24T16:01:17.178Z,35.77
2019-02-24T16:03:45.993Z,31.93
2019-02-24T16:06:14.801Z,35.00
2019-02-24T16:08:43.617Z,46.47
2019-02-24T16:11:12.497Z,39.93
2019-02-24T16:13:41.327Z,36.80
2019-02-24T16:16:10.296Z,36.73
2019-02-24T16:18:39.274Z,39.67
2019-02-24T16:21:08.221Z,26.67
2019-02-24T16:23:37.111Z,31.63
2019-02-24T16:26:05.933Z,29.90
2019-02-24T16:28:34.745Z,33.80
2019-02-24T16:31:03.640Z,32.70
2019-02-24T16:33:32.461Z,30.97
2019-02-24T16:36:01.414Z,36.27
2019-02-24T16:38:30.219Z,25.07
2019-02-24T16:40:59.109Z,29.17
2019-02-24T16:43:27.992Z,29.20
2019-02-24T16:45:56.894Z,28.77
2019-02-24T16:48:25.697Z,32.37
2019-02-24T16:50:54.522Z,28.97
2019-02-24T16:53:23.326Z,26.73
2019-02-24T16:55:52.154Z,23.77
2019-02-24T16:58:20.958Z,31.40
2019-02-24T17:00:49.836Z,34.53
2019-02-24T17:03:20.111Z,27.67
2019-02-24T17:05:49.204Z,27.37
2019-02-24T17:08:18.025Z,24.57
2019-02-24T17:10:46.985Z,25.57
2019-02-24T17:13:15.824Z,21.20
2019-02-24T17:15:44.651Z,24.30
2019-02-24T17:18:13.449Z,20.37
2019-02-24T17:20:42.268Z,23.50
2019-02-24T17:23:11.092Z,24.17
2019-02-24T17:25:39.889Z,28.03
2019-02-24T17:28:08.818Z,18.93
2019-02-24T17:30:37.811Z,29.00
2019-02-24T17:33:06.685Z,24.30
2019-02-24T17:35:35.572Z,17.87
2019-02-24T17:38:04.874Z,17.53
2019-02-24T17:40:33.763Z,24.23
2019-02-24T17:43:02.571Z,20.90
2019-02-24T17:45:31.388Z,19.63
2019-02-24T17:48:00.205Z,23.10
2019-02-24T17:50:29.085Z,19.00
2019-02-24T17:52:57.893Z,21.37
2019-02-24T17:55:26.796Z,22.50
2019-02-24T17:57:55.669Z,23.03
2019-02-24T18:00:28.225Z,19.40
2019-02-24T18:02:57.155Z,23.30
2019-02-24T18:05:26.041Z,16.40
2019-02-24T18:07:54.912Z,20.57
2019-02-24T18:10:23.917Z,16.07
2019-02-24T18:12:52.807Z,22.10
2019-02-24T18:15:21.613Z,21.43
2019-02-24T18:17:50.497Z,20.20
2019-02-24T18:20:19.386Z,16.53
2019-02-24T18:22:48.268Z,18.30
2019-02-24T18:25:17.221Z,15.77
2019-02-24T18:27:46.147Z,17.00
2019-02-24T18:30:19.804Z,19.80
2019-02-24T18:32:48.699Z,19.37
2019-02-24T18:35:17.573Z,19.13
2019-02-24T18:37:46.390Z,12.77
2019-02-24T18:40:15.668Z,17.63
2019-02-24T18:42:44.746Z,13.10
2019-02-24T18:45:13.784Z,13.50
2019-02-24T18:47:42.777Z,14.40
2019-02-24T18:50:11.853Z,17.57
2019-02-24T18:52:40.671Z,14.43
2019-02-24T18:55:09.728Z,14.70
2019-02-24T18:57:38.675Z,15.33
2019-02-24T19:00:09.161Z,14.90
2019-02-24T19:02:38.062Z,13.83
2019-02-24T19:05:07.376Z,16.90
2019-02-24T19:07:36.191Z,21.57
2019-02-24T19:10:05.755Z,13.70
2019-02-24T19:12:34.638Z,11.80
2019-02-24T19:15:03.673Z,11.37
2019-02-24T19:17:32.677Z,10.97
2019-02-24T19:20:02.976Z,10.83
2019-02-24T19:22:32.006Z,14.27
2019-02-24T19:25:00.829Z,12.03
2019-02-24T19:27:29.625Z,11.87
2019-02-24T19:29:58.446Z,10.43
2019-02-24T19:32:27.249Z,15.50
2019-02-24T19:34:56.117Z,8.90
2019-02-24T19:37:24.933Z,12.40
2019-02-24T19:39:53.736Z,9.40
2019-02-24T19:42:22.554Z,12.70
2019-02-24T19:44:51.365Z,10.43
2019-02-24T19:47:20.173Z,15.57
2019-02-24T19:49:48.969Z,12.00
2019-02-24T19:52:17.788Z,12.47
2019-02-24T19:54:46.661Z,10.93
2019-02-24T19:57:15.485Z,9.90
2019-02-24T19:59:44.281Z,13.80
2019-02-24T20:02:13.256Z,14.60
2019-02-24T20:04:42.141Z,16.50
2019-02-24T20:07:10.954Z,11.57
2019-02-24T20:09:39.941Z,8.23
2019-02-24T20:12:08.837Z,10.30
2019-02-24T20:14:37.704Z,9.33
2019-02-24T20:17:06.587Z,11.30
2019-02-24T20:19:35.409Z,10.10
2019-02-24T20:22:04.546Z,12.50
2019-02-24T20:24:33.352Z,10.87
2019-02-24T20:27:02.235Z,9.73
2019-02-24T20:29:31.037Z,9.20
2019-02-24T20:31:59.860Z,10.10
2019-02-24T20:34:28.684Z,11.43
2019-02-24T20:36:57.481Z,8.90
2019-02-24T20:39:26.296Z,9.80
2019-02-24T20:41:55.122Z,8.60
2019-02-24T20:44:23.988Z,7.67
2019-02-24T20:46:52.794Z,11.90
2019-02-24T20:49:21.673Z,11.43
2019-02-24T20:51:50.565Z,11.30
2019-02-24T20:54:19.437Z,8.77
2019-02-24T20:56:48.349Z,9.90
2019-02-24T20:59:17.295Z,9.47
2019-02-24T21:01:46.111Z,11.33
2019-02-24T21:04:14.921Z,7.60
2019-02-24T21:06:43.739Z,8.20
2019-02-24T21:09:12.644Z,8.43
2019-02-24T21:11:41.481Z,10.90
2019-02-24T21:14:10.298Z,12.70
2019-02-24T21:16:39.123Z,10.20
2019-02-24T21:19:07.927Z,10.50
2019-02-24T21:21:36.746Z,14.03
2019-02-24T21:24:06.985Z,10.23
2019-02-24T21:26:36.447Z,7.10
2019-02-24T21:29:06.236Z,6.40
2019-02-24T21:31:35.849Z,9.30
2019-02-24T21:34:05.558Z,7.93
2019-02-24T21:36:36.189Z,6.47
2019-02-24T21:39:07.142Z,13.00
2019-02-24T21:41:36.582Z,11.47
2019-02-24T21:44:05.562Z,7.80
2019-02-24T21:46:34.357Z,6.70
2019-02-24T21:49:03.625Z,8.73
2019-02-24T21:51:32.498Z,9.03
2019-02-24T21:54:01.301Z,7.90
2019-02-24T21:56:30.109Z,7.00
2019-02-24T21:58:58.933Z,8.63
2019-02-24T22:01:27.738Z,8.57
2019-02-24T22:03:56.639Z,9.17
2019-02-24T22:06:25.448Z,8.47
2019-02-24T22:08:54.257Z,9.10
2019-02-24T22:11:23.133Z,7.50
2019-02-24T22:13:51.930Z,9.37
2019-02-24T22:16:20.737Z,5.70
2019-02-24T22:18:49.624Z,6.50
2019-02-24T22:21:18.504Z,6.63
2019-02-24T22:23:47.873Z,6.03
2019-02-24T22:26:16.745Z,6.33
2019-02-24T22:28:45.693Z,8.00
2019-02-24T22:31:14.489Z,6.60
2019-02-24T22:33:43.321Z,7.20
2019-02-24T22:36:12.184Z,6.50
2019-02-24T22:38:41.069Z,5.73
2019-02-24T22:41:09.881Z,10.50
2019-02-24T22:43:38.693Z,5.53
2019-02-24T22:46:07.511Z,9.53
2019-02-24T22:48:36.325Z,7.00
2019-02-24T22:51:05.197Z,11.90
2019-02-24T22:53:34.006Z,7.40
2019-02-24T23:48:37.042Z,5.23
